createdAt,value
2023-05-03T00:01:23.355Z,7.03
2023-05-03T00:03:52.139Z,6.78
2023-05-03T00:06:19.805Z,6.10
2023-05-03T00:08:46.481Z,6.78
2023-05-03T00:11:13.072Z,6.85
2023-05-03T00:13:39.406Z,6.60
2023-05-03T00:16:06.344Z,6.13
2023-05-03T00:18:33.046Z,6.55
2023-05-03T00:20:59.796Z,6.38
2023-05-03T00:23:26.720Z,6.47
2023-05-03T00:25:57.028Z,6.40
2023-05-03T00:28:24.126Z,6.88
2023-05-03T00:30:50.744Z,6.97
2023-05-03T00:33:17.575Z,6.72
2023-05-03T00:35:44.728Z,7.05
2023-05-03T00:38:14.148Z,6.70
2023-05-03T00:40:40.996Z,6.60
2023-05-03T00:43:07.799Z,6.88
2023-05-03T00:45:34.813Z,6.75
2023-05-03T00:48:02.317Z,7.22
2023-05-03T00:50:31.075Z,6.78
2023-05-03T00:52:58.251Z,6.70
2023-05-03T00:55:28.457Z,6.70
2023-05-03T00:57:55.448Z,6.60
2023-05-03T01:00:22.500Z,7.88
2023-05-03T01:02:49.468Z,6.97
2023-05-03T01:05:16.729Z,6.53
2023-05-03T01:08:07.013Z,6.63
2023-05-03T01:10:48.696Z,6.90
2023-05-03T01:13:23.440Z,7.38
2023-05-03T01:15:54.874Z,7.15
2023-05-03T01:18:24.251Z,7.25
2023-05-03T01:20:51.433Z,6.90
2023-05-03T01:23:32.994Z,7.57
2023-05-03T01:26:14.316Z,7.13
2023-05-03T01:28:41.338Z,7.38
2023-05-03T01:31:07.779Z,7.07
2023-05-03T01:33:40.896Z,6.82
2023-05-03T01:36:16.712Z,7.20
2023-05-03T01:38:43.310Z,7.07
2023-05-03T01:41:11.875Z,7.20
2023-05-03T01:43:38.952Z,7.00
2023-05-03T01:46:05.668Z,7.40
2023-05-03T01:48:32.982Z,7.53
2023-05-03T01:51:00.712Z,7.22
2023-05-03T01:53:27.454Z,7.55
2023-05-03T01:55:54.120Z,7.07
2023-05-03T01:58:20.690Z,7.07
2023-05-03T02:00:50.425Z,7.53
2023-05-03T02:03:18.226Z,7.10
2023-05-03T02:05:45.944Z,7.15
2023-05-03T02:08:12.649Z,6.57
2023-05-03T02:10:39.258Z,7.15
2023-05-03T02:13:05.910Z,6.40
2023-05-03T02:15:32.877Z,7.30
2023-05-03T02:18:02.308Z,6.57
2023-05-03T02:20:29.232Z,6.60
2023-05-03T02:22:56.072Z,6.80
2023-05-03T02:25:22.679Z,6.82
2023-05-03T02:27:52.414Z,6.82
2023-05-03T02:30:19.451Z,6.78
2023-05-03T02:32:46.561Z,6.63
2023-05-03T02:35:13.767Z,6.22
2023-05-03T02:37:40.475Z,6.35
2023-05-03T02:40:11.180Z,6.20
2023-05-03T02:42:37.975Z,6.13
2023-05-03T02:45:08.336Z,5.97
2023-05-03T02:47:34.974Z,6.18
2023-05-03T02:50:01.846Z,5.82
2023-05-03T02:52:30.685Z,5.63
2023-05-03T02:54:57.387Z,6.68
2023-05-03T02:57:24.071Z,6.32
2023-05-03T02:59:50.811Z,6.95
2023-05-03T03:02:17.353Z,6.70
2023-05-03T03:04:43.804Z,6.80
2023-05-03T03:07:10.521Z,6.60
2023-05-03T03:09:37.195Z,6.75
2023-05-03T03:12:04.043Z,6.85
2023-05-03T03:14:32.014Z,6.70
2023-05-03T03:16:58.509Z,6.85
2023-05-03T03:19:25.843Z,6.70
2023-05-03T03:21:53.587Z,6.90
2023-05-03T03:24:19.986Z,6.38
2023-05-03T03:26:47.303Z,6.10
2023-05-03T03:29:13.842Z,6.85
2023-05-03T03:31:43.165Z,6.75
2023-05-03T03:34:09.639Z,6.90
2023-05-03T03:36:38.010Z,6.65
2023-05-03T03:39:06.269Z,7.00
2023-05-03T03:41:35.032Z,7.00
2023-05-03T03:44:02.873Z,6.97
2023-05-03T03:46:29.669Z,7.20
2023-05-03T03:48:58.161Z,7.50
2023-05-03T03:51:28.459Z,7.32
2023-05-03T03:53:55.634Z,7.55
2023-05-03T03:56:25.556Z,7.15
2023-05-03T03:58:56.412Z,6.95
2023-05-03T04:01:23.595Z,6.80
2023-05-03T04:03:51.899Z,7.25
2023-05-03T04:06:18.504Z,7.70
2023-05-03T04:08:46.398Z,7.45
2023-05-03T04:11:14.579Z,7.38
2023-05-03T04:13:49.680Z,7.13
2023-05-03T04:16:17.188Z,7.43
2023-05-03T04:18:44.774Z,7.60
2023-05-03T04:21:11.367Z,7.18
2023-05-03T04:23:38.242Z,7.85
2023-05-03T04:26:07.552Z,6.80
2023-05-03T04:28:40.234Z,7.35
2023-05-03T04:31:07.141Z,7.57
2023-05-03T04:33:36.297Z,7.43
2023-05-03T04:36:08.610Z,7.75
2023-05-03T04:38:37.134Z,7.55
2023-05-03T04:41:03.710Z,8.00
2023-05-03T04:43:30.741Z,7.60
2023-05-03T04:45:58.579Z,8.48
2023-05-03T04:48:27.174Z,7.95
2023-05-03T04:50:53.584Z,7.43
2023-05-03T04:53:22.324Z,8.27
2023-05-03T04:55:59.076Z,6.82
2023-05-03T04:58:26.700Z,6.53
2023-05-03T05:00:54.191Z,6.90
2023-05-03T05:03:31.464Z,5.90
2023-05-03T05:06:00.971Z,6.37
2023-05-03T05:08:27.948Z,6.43
2023-05-03T05:10:57.435Z,7.18
2023-05-03T05:13:29.409Z,6.40
2023-05-03T05:15:56.928Z,6.35
2023-05-03T05:18:23.390Z,6.47
2023-05-03T05:20:51.302Z,5.63
2023-05-03T05:23:19.509Z,5.72
2023-05-03T05:25:47.739Z,5.57
2023-05-03T05:28:14.349Z,5.85
2023-05-03T05:30:42.042Z,5.90
2023-05-03T05:33:08.497Z,5.65
2023-05-03T05:35:35.584Z,6.13
2023-05-03T05:38:04.033Z,5.47
2023-05-03T05:40:31.140Z,5.25
2023-05-03T05:42:59.351Z,5.45
2023-05-03T05:45:29.917Z,5.00
2023-05-03T05:47:57.250Z,4.85
2023-05-03T05:50:24.614Z,4.75
2023-05-03T05:52:56.770Z,4.35
2023-05-03T05:55:26.690Z,4.90
2023-05-03T05:57:55.308Z,5.18
2023-05-03T06:00:26.376Z,4.68
2023-05-03T06:02:53.096Z,5.55
2023-05-03T06:05:21.615Z,5.07
2023-05-03T06:07:48.587Z,5.50
2023-05-03T06:10:15.021Z,5.15
2023-05-03T06:12:45.965Z,5.85
2023-05-03T06:15:17.533Z,5.93
2023-05-03T06:17:46.231Z,4.93
2023-05-03T06:20:13.123Z,4.57
2023-05-03T06:22:42.053Z,5.00
2023-05-03T06:25:16.218Z,4.93
2023-05-03T06:27:47.709Z,5.35
2023-05-03T06:30:14.498Z,5.35
2023-05-03T06:32:42.387Z,5.40
2023-05-03T06:35:12.184Z,4.78
2023-05-03T06:37:40.061Z,5.47
2023-05-03T06:40:09.977Z,4.80
2023-05-03T06:42:36.789Z,5.57
2023-05-03T06:45:08.305Z,5.55
2023-05-03T06:47:37.507Z,5.25
2023-05-03T06:50:06.494Z,4.22
2023-05-03T06:52:33.945Z,4.70
2023-05-03T06:55:01.257Z,4.45
2023-05-03T06:57:28.968Z,4.25
2023-05-03T06:59:55.586Z,5.60
2023-05-03T07:02:22.803Z,4.10
2023-05-03T07:04:49.709Z,4.90
2023-05-03T07:07:16.169Z,5.15
2023-05-03T07:09:43.823Z,5.05
2023-05-03T07:12:10.953Z,4.65
2023-05-03T07:14:38.347Z,6.97
2023-05-03T07:17:04.681Z,4.25
2023-05-03T07:19:31.362Z,4.10
2023-05-03T07:21:58.424Z,3.92
2023-05-03T07:24:25.975Z,4.15
2023-05-03T07:26:53.071Z,3.80
2023-05-03T07:29:19.674Z,3.63
2023-05-03T07:31:48.948Z,3.42
2023-05-03T07:34:17.337Z,3.83
2023-05-03T07:36:43.802Z,4.03
2023-05-03T07:39:10.792Z,4.22
2023-05-03T07:41:37.767Z,4.10
2023-05-03T07:44:04.559Z,4.20
2023-05-03T07:46:34.987Z,4.03
2023-05-03T07:49:01.959Z,3.78
2023-05-03T07:51:29.178Z,3.72
2023-05-03T07:53:59.022Z,3.78
2023-05-03T07:56:27.092Z,3.95
2023-05-03T07:59:04.658Z,4.18
2023-05-03T08:01:35.634Z,4.00
2023-05-03T08:04:02.418Z,5.00
2023-05-03T08:06:29.582Z,4.18
2023-05-03T08:08:56.222Z,4.10
2023-05-03T08:11:22.555Z,4.15
2023-05-03T08:13:49.178Z,4.50
2023-05-03T08:16:16.724Z,11.18
2023-05-03T08:18:43.517Z,4.13
2023-05-03T08:21:12.395Z,4.30
2023-05-03T08:23:39.341Z,4.32
2023-05-03T08:26:10.565Z,4.30
2023-05-03T08:28:38.139Z,4.60
2023-05-03T08:31:08.282Z,4.97
2023-05-03T08:33:35.041Z,4.57
2023-05-03T08:36:01.962Z,4.10
2023-05-03T08:38:30.683Z,3.97
2023-05-03T08:40:59.307Z,4.72
2023-05-03T08:43:28.339Z,4.78
2023-05-03T08:45:55.122Z,3.72
2023-05-03T08:48:22.092Z,4.05
2023-05-03T08:50:49.834Z,3.95
2023-05-03T08:53:16.297Z,4.22
2023-05-03T08:55:44.758Z,4.28
2023-05-03T08:58:14.989Z,3.90
2023-05-03T09:00:45.371Z,4.72
2023-05-03T09:03:12.365Z,4.03
2023-05-03T09:05:40.458Z,4.70
2023-05-03T09:08:11.833Z,4.68
2023-05-03T09:10:39.754Z,4.50
2023-05-03T09:13:07.916Z,4.30
2023-05-03T09:15:34.810Z,4.43
2023-05-03T09:18:07.735Z,4.57
2023-05-03T09:20:35.069Z,4.77
2023-05-03T09:23:01.790Z,11.30
2023-05-03T09:26:01.532Z,6.80
2023-05-03T09:28:28.202Z,9.23
2023-05-03T09:31:07.648Z,6.93
2023-05-03T09:33:34.525Z,6.70
2023-05-03T09:36:01.945Z,6.72
2023-05-03T09:38:30.989Z,6.60
2023-05-03T09:40:57.999Z,6.22
2023-05-03T09:43:24.503Z,6.10
2023-05-03T09:45:51.203Z,6.07
2023-05-03T09:48:18.863Z,6.70
2023-05-03T09:50:45.840Z,6.65
2023-05-03T09:53:13.386Z,6.25
2023-05-03T09:55:40.132Z,7.00
2023-05-03T09:58:08.010Z,6.63
2023-05-03T10:00:37.130Z,5.97
2023-05-03T10:03:06.956Z,4.82
2023-05-03T10:05:36.266Z,7.13
2023-05-03T10:08:04.437Z,5.22
2023-05-03T10:10:32.382Z,4.63
2023-05-03T10:12:59.806Z,5.20
2023-05-03T10:15:27.811Z,5.43
2023-05-03T10:17:57.832Z,5.68
2023-05-03T10:20:31.171Z,5.40
2023-05-03T10:23:13.582Z,5.90
2023-05-03T10:26:00.523Z,5.18
2023-05-03T10:28:27.346Z,5.13
2023-05-03T10:30:54.048Z,5.47
2023-05-03T10:33:21.910Z,5.90
2023-05-03T10:35:55.072Z,5.85
2023-05-03T10:40:48.680Z,5.85
2023-05-03T10:43:30.672Z,5.65
2023-05-03T10:46:01.046Z,5.55
2023-05-03T10:48:28.885Z,5.40
2023-05-03T10:50:56.536Z,5.53
2023-05-03T10:53:36.768Z,5.40
2023-05-03T10:56:11.226Z,4.75
2023-05-03T10:58:38.984Z,5.35
2023-05-03T11:01:06.975Z,4.88
2023-05-03T11:03:38.983Z,4.63
2023-05-03T11:06:07.773Z,4.72
2023-05-03T11:08:37.414Z,4.90
2023-05-03T11:11:09.832Z,4.88
2023-05-03T11:13:37.401Z,4.32
2023-05-03T11:16:06.067Z,4.40
2023-05-03T11:18:32.787Z,4.53
2023-05-03T11:20:59.543Z,4.70
2023-05-03T11:23:30.969Z,4.97
2023-05-03T11:26:00.553Z,5.47
2023-05-03T11:28:26.914Z,4.35
2023-05-03T11:30:53.841Z,4.78
2023-05-03T11:33:20.619Z,4.38
2023-05-03T11:35:47.018Z,4.75
2023-05-03T11:38:14.017Z,4.88
2023-05-03T11:40:41.484Z,4.57
2023-05-03T11:43:08.184Z,4.70
2023-05-03T11:45:41.414Z,5.95
2023-05-03T11:48:08.156Z,5.90
2023-05-03T11:50:45.847Z,6.32
2023-05-03T11:53:13.147Z,5.50
2023-05-03T11:55:43.907Z,5.25
2023-05-03T11:58:17.882Z,4.25
2023-05-03T12:00:48.442Z,4.57
2023-05-03T12:03:23.212Z,4.45
2023-05-03T12:05:54.429Z,4.60
2023-05-03T12:08:23.191Z,4.55
2023-05-03T12:10:55.172Z,3.83
2023-05-03T12:13:30.625Z,4.18
2023-05-03T12:26:00.960Z,4.00
2023-05-03T12:28:27.668Z,3.47
2023-05-03T12:30:55.696Z,3.70
2023-05-03T12:33:24.119Z,4.10
2023-05-03T12:35:53.420Z,4.30
2023-05-03T12:38:23.633Z,4.20
2023-05-03T12:40:53.908Z,4.20
2023-05-03T12:43:21.064Z,3.38
2023-05-03T12:45:56.306Z,4.20
2023-05-03T12:48:34.720Z,4.10
2023-05-03T12:51:18.654Z,3.25
2023-05-03T12:53:54.527Z,3.08
2023-05-03T12:56:25.706Z,2.75
2023-05-03T12:59:19.281Z,3.15
2023-05-03T13:04:37.005Z,3.63
2023-05-03T13:06:59.497Z,2.80
2023-05-03T13:09:38.026Z,3.17
2023-05-03T13:12:14.765Z,2.97
2023-05-03T13:14:43.512Z,3.10
2023-05-03T13:17:12.063Z,3.13
2023-05-03T13:19:38.855Z,3.30
2023-05-03T13:22:05.575Z,3.15
2023-05-03T13:24:36.231Z,3.00
2023-05-03T13:27:02.803Z,2.90
2023-05-03T13:29:30.829Z,2.72
2023-05-03T13:31:58.097Z,3.08
2023-05-03T13:34:24.565Z,2.40
2023-05-03T13:36:51.252Z,3.08
2023-05-03T13:39:19.244Z,2.72
2023-05-03T13:41:48.106Z,3.25
2023-05-03T13:44:14.954Z,2.70
2023-05-03T13:46:43.863Z,3.05
2023-05-03T13:49:10.763Z,2.95
2023-05-03T13:51:37.876Z,2.72
2023-05-03T13:54:05.309Z,2.85
2023-05-03T13:56:31.939Z,2.92
2023-05-03T13:58:58.430Z,2.97
2023-05-03T14:01:25.230Z,2.95
2023-05-03T14:03:52.047Z,2.65
2023-05-03T14:06:20.439Z,3.55
2023-05-03T14:08:47.313Z,3.00
2023-05-03T14:11:14.553Z,3.38
2023-05-03T14:13:55.579Z,2.80
2023-05-03T14:16:36.374Z,3.38
2023-05-03T14:19:07.480Z,3.58
2023-05-03T14:21:34.191Z,3.47
2023-05-03T14:24:03.388Z,3.30
2023-05-03T14:26:30.443Z,3.33
2023-05-03T14:28:57.004Z,3.58
2023-05-03T14:31:23.662Z,3.35
2023-05-03T14:33:50.377Z,3.80
2023-05-03T14:36:16.895Z,3.00
2023-05-03T14:38:45.129Z,2.90
2023-05-03T14:41:11.978Z,3.63
2023-05-03T14:43:39.557Z,3.10
2023-05-03T14:46:06.193Z,3.00
2023-05-03T14:48:33.177Z,2.97
2023-05-03T14:50:59.717Z,2.88
2023-05-03T14:53:26.185Z,3.00
2023-05-03T14:55:53.998Z,3.40
2023-05-03T14:58:20.720Z,3.25
2023-05-03T15:00:48.044Z,3.15
2023-05-03T15:03:14.689Z,3.28
2023-05-03T15:05:44.299Z,3.30
2023-05-03T15:08:11.332Z,3.20
2023-05-03T15:10:38.225Z,3.55
2023-05-03T15:13:06.461Z,3.08
2023-05-03T15:15:33.041Z,3.33
2023-05-03T15:17:59.664Z,2.83
2023-05-03T15:20:26.326Z,2.88
2023-05-03T15:22:52.817Z,4.03
2023-05-03T15:25:19.358Z,3.58
2023-05-03T15:27:46.112Z,3.45
2023-05-03T15:30:14.678Z,3.70
2023-05-03T15:32:41.347Z,3.20
2023-05-03T15:35:07.953Z,3.17
2023-05-03T15:37:36.920Z,3.33
2023-05-03T15:40:09.446Z,3.22
2023-05-03T15:42:36.564Z,3.40
2023-05-03T15:45:03.625Z,3.30
2023-05-03T15:47:30.414Z,3.22
2023-05-03T15:49:58.041Z,3.40
2023-05-03T15:52:25.630Z,2.72
2023-05-03T15:54:51.980Z,3.30
2023-05-03T15:57:19.569Z,2.70
2023-05-03T15:59:46.600Z,3.28
2023-05-03T16:02:13.117Z,3.42
2023-05-03T16:04:39.641Z,3.30
2023-05-03T16:07:07.002Z,3.45
2023-05-03T16:09:34.583Z,3.38
2023-05-03T16:12:02.906Z,2.80
2023-05-03T16:14:29.432Z,3.33
2023-05-03T16:16:55.959Z,3.40
2023-05-03T16:19:23.104Z,2.90
2023-05-03T16:21:49.843Z,3.05
2023-05-03T16:24:16.498Z,3.15
2023-05-03T16:26:43.218Z,2.80
2023-05-03T16:29:10.534Z,2.90
2023-05-03T16:31:37.220Z,3.05
2023-05-03T16:34:03.918Z,3.03
2023-05-03T16:36:33.777Z,2.90
2023-05-03T16:39:00.449Z,2.83
2023-05-03T16:41:26.829Z,2.70
2023-05-03T16:43:55.823Z,2.67
2023-05-03T16:46:25.841Z,3.15
2023-05-03T16:48:52.580Z,3.20
2023-05-03T16:51:22.456Z,3.63
2023-05-03T16:53:49.039Z,2.53
2023-05-03T16:56:19.949Z,2.75
2023-05-03T16:58:47.901Z,2.63
2023-05-03T17:01:17.095Z,2.47
2023-05-03T17:03:43.676Z,2.80
2023-05-03T17:06:12.825Z,4.07
2023-05-03T17:08:41.273Z,2.60
2023-05-03T17:11:09.137Z,2.20
2023-05-03T17:13:36.279Z,2.80
2023-05-03T17:16:08.942Z,2.63
2023-05-03T17:18:37.845Z,2.38
2023-05-03T17:21:06.112Z,2.10
2023-05-03T17:23:35.655Z,2.30
2023-05-03T17:26:04.669Z,2.40
2023-05-03T17:28:33.545Z,2.38
2023-05-03T17:31:01.129Z,2.13
2023-05-03T17:33:27.747Z,2.00
2023-05-03T17:35:56.224Z,2.08
2023-05-03T17:38:23.283Z,1.98
2023-05-03T17:40:49.676Z,2.10
2023-05-03T17:43:17.631Z,3.08
2023-05-03T17:45:45.129Z,2.00
2023-05-03T17:48:12.565Z,2.08
2023-05-03T17:50:39.101Z,1.98
2023-05-03T17:53:05.901Z,1.92
2023-05-03T17:55:35.096Z,2.28
2023-05-03T17:58:01.799Z,2.00
2023-05-03T18:00:29.429Z,2.20
2023-05-03T18:02:56.521Z,1.83
2023-05-03T18:05:23.152Z,1.90
2023-05-03T18:07:49.563Z,1.88
2023-05-03T18:10:17.458Z,1.80
2023-05-03T18:12:44.079Z,1.83
2023-05-03T18:15:12.463Z,1.77
2023-05-03T18:17:41.089Z,2.00
2023-05-03T18:20:08.697Z,1.80
2023-05-03T18:22:35.115Z,1.80
2023-05-03T18:25:02.374Z,1.80
2023-05-03T18:27:29.205Z,2.20
2023-05-03T18:29:56.734Z,1.90
2023-05-03T18:32:23.547Z,2.20
2023-05-03T18:34:52.523Z,2.00
2023-05-03T18:37:18.979Z,1.77
2023-05-03T18:39:45.445Z,2.20
2023-05-03T18:42:12.796Z,3.30
2023-05-03T18:44:39.699Z,2.85
2023-05-03T18:47:07.584Z,2.33
2023-05-03T18:49:34.290Z,2.70
2023-05-03T18:52:00.693Z,2.50
2023-05-03T18:54:27.066Z,2.30
2023-05-03T18:56:53.778Z,2.90
2023-05-03T18:59:20.141Z,2.20
2023-05-03T19:01:46.803Z,1.85
2023-05-03T19:04:15.113Z,1.95
2023-05-03T19:06:42.912Z,1.95
2023-05-03T19:09:13.450Z,1.88
2023-05-03T19:11:43.919Z,1.88
2023-05-03T19:14:10.518Z,1.80
2023-05-03T19:16:37.410Z,2.20
2023-05-03T19:19:04.417Z,2.00
2023-05-03T19:21:31.917Z,1.95
2023-05-03T19:23:58.684Z,2.30
2023-05-03T19:26:25.161Z,1.98
2023-05-03T19:28:51.517Z,1.95
2023-05-03T19:31:18.131Z,2.10
2023-05-03T19:33:44.650Z,2.33
2023-05-03T19:36:15.114Z,2.75
2023-05-03T19:38:41.572Z,2.70
2023-05-03T19:41:12.351Z,2.50
2023-05-03T19:43:39.583Z,2.70
2023-05-03T19:46:06.664Z,2.35
2023-05-03T19:48:34.191Z,2.10
2023-05-03T19:51:01.411Z,2.28
2023-05-03T19:53:28.461Z,2.00
2023-05-03T19:55:55.525Z,2.00
2023-05-03T19:58:22.245Z,2.28
2023-05-03T20:00:48.563Z,2.28
2023-05-03T20:03:15.211Z,2.50
2023-05-03T20:05:41.731Z,2.80
2023-05-03T20:08:08.776Z,2.55
2023-05-03T20:10:36.683Z,2.00
2023-05-03T20:13:04.289Z,2.00
2023-05-03T20:15:31.504Z,1.73
2023-05-03T20:17:57.961Z,1.90
2023-05-03T20:20:24.610Z,1.95
2023-05-03T20:22:51.195Z,1.90
2023-05-03T20:25:18.104Z,2.00
2023-05-03T20:27:47.427Z,1.98
2023-05-03T20:30:14.032Z,1.80
2023-05-03T20:32:41.608Z,2.00
2023-05-03T20:35:10.791Z,1.90
2023-05-03T20:37:38.635Z,2.00
2023-05-03T20:40:06.344Z,1.95
2023-05-03T20:42:32.930Z,2.60
2023-05-03T20:44:59.456Z,2.28
2023-05-03T20:47:26.460Z,2.00
2023-05-03T20:49:52.891Z,1.90
2023-05-03T20:52:19.331Z,2.30
2023-05-03T20:54:46.704Z,1.98
2023-05-03T20:57:16.839Z,2.10
2023-05-03T20:59:44.182Z,2.10
2023-05-03T21:02:11.299Z,2.00
2023-05-03T21:04:38.045Z,1.70
2023-05-03T21:07:04.846Z,2.03
2023-05-03T21:09:31.679Z,2.00
2023-05-03T21:11:58.410Z,2.08
2023-05-03T21:14:25.872Z,2.28
2023-05-03T21:16:52.269Z,2.05
2023-05-03T21:19:21.011Z,2.20
2023-05-03T21:21:47.907Z,2.20
2023-05-03T21:24:14.923Z,2.40
2023-05-03T21:26:41.415Z,2.13
2023-05-03T21:29:08.277Z,2.10
2023-05-03T21:31:34.872Z,2.10
2023-05-03T21:34:03.973Z,2.03
2023-05-03T21:36:30.628Z,2.05
2023-05-03T21:38:58.134Z,1.90
2023-05-03T21:41:25.536Z,2.35
2023-05-03T21:43:52.041Z,2.45
2023-05-03T21:46:18.496Z,2.47
2023-05-03T21:48:45.632Z,2.20
2023-05-03T21:51:19.317Z,1.92
2023-05-03T21:53:45.881Z,2.50
2023-05-03T21:56:12.440Z,2.40
2023-05-03T21:58:39.225Z,2.13
2023-05-03T22:01:06.478Z,2.47
2023-05-03T22:03:34.727Z,1.98
2023-05-03T22:06:01.522Z,2.40
2023-05-03T22:08:27.930Z,2.17
2023-05-03T22:10:56.171Z,2.35
2023-05-03T22:13:22.903Z,2.47
2023-05-03T22:15:49.554Z,2.40
2023-05-03T22:18:17.438Z,2.60
2023-05-03T22:20:43.911Z,2.20
2023-05-03T22:23:10.427Z,2.25
2023-05-03T22:25:36.992Z,2.03
2023-05-03T22:28:03.556Z,2.10
2023-05-03T22:30:30.095Z,2.03
2023-05-03T22:32:57.039Z,2.17
2023-05-03T22:35:23.720Z,1.92
2023-05-03T22:37:50.146Z,2.35
2023-05-03T22:40:16.522Z,2.53
2023-05-03T22:42:43.061Z,2.15
2023-05-03T22:45:09.894Z,2.00
2023-05-03T22:47:36.398Z,1.98
2023-05-03T22:50:03.101Z,2.10
2023-05-03T22:52:31.457Z,3.60
2023-05-03T22:54:58.538Z,3.83
2023-05-03T22:57:25.187Z,3.70
2023-05-03T22:59:51.501Z,3.75
2023-05-03T23:02:18.702Z,3.22
2023-05-03T23:04:45.119Z,2.90
2023-05-03T23:07:13.328Z,2.70
2023-05-03T23:09:40.148Z,2.60
2023-05-03T23:12:06.579Z,2.50
2023-05-03T23:14:32.901Z,3.10
2023-05-03T23:16:59.314Z,2.42
2023-05-03T23:19:26.641Z,2.35
2023-05-03T23:21:53.198Z,2.67
2023-05-03T23:24:19.772Z,3.22
2023-05-03T23:26:46.197Z,3.03
2023-05-03T23:29:12.951Z,2.40
2023-05-03T23:31:39.613Z,3.70
2023-05-03T23:34:07.269Z,4.07
2023-05-03T23:36:35.072Z,3.60
2023-05-03T23:39:01.691Z,2.53
2023-05-03T23:41:28.438Z,2.80
2023-05-03T23:43:55.055Z,2.63
2023-05-03T23:46:21.652Z,2.70
2023-05-03T23:48:48.097Z,2.50
2023-05-03T23:51:14.778Z,2.90
2023-05-03T23:53:41.499Z,2.53
2023-05-03T23:56:08.335Z,2.75
2023-05-03T23:58:34.924Z,2.90
